Time;durP1;ratioP1;P1;durP2;ratioP2;P2;SDS_P1;SDS_P2;PMS_P1;PMS_P2;Temp;Humidity;BMP_temperature;BMP_pressure;BME280_temperature;BME280_humidity;BME280_pressure;Samples;Min_cycle;Max_cycle;Signal;HPM_P1;HPM_P2
2022/07/03 00:00:56;;;;;;;3.03;2.60;;;18.20;99.90;;;;;;4957104;29;20234;-47
2022/07/03 00:03:25;;;;;;;3.70;2.27;;;18.20;99.90;;;;;;4957820;29;20320;-47
2022/07/03 00:05:53;;;;;;;3.17;2.70;;;18.10;99.90;;;;;;4957425;29;20233;-48
2022/07/03 00:08:22;;;;;;;3.73;2.53;;;18.10;99.90;;;;;;4957342;29;20237;-48
2022/07/03 00:10:50;;;;;;;3.20;2.40;;;18.00;99.90;;;;;;4950801;29;20279;-48
2022/07/03 00:13:18;;;;;;;2.50;2.30;;;18.00;99.90;;;;;;4957064;29;20320;-47
2022/07/03 00:15:46;;;;;;;3.33;2.33;;;18.00;99.90;;;;;;4957156;29;20642;-48
2022/07/03 00:18:15;;;;;;;3.57;2.33;;;18.00;99.90;;;;;;4957124;28;20237;-49
2022/07/03 00:20:48;;;;;;;4.07;2.43;;;18.10;99.90;;;;;;4956946;29;20275;-48
2022/07/03 00:23:19;;;;;;;4.63;2.60;;;18.00;99.90;;;;;;4957349;29;20317;-48
2022/07/03 00:25:48;;;;;;;4.63;2.60;;;18.00;99.90;;;;;;4957153;29;20245;-49
2022/07/03 00:28:20;;;;;;;2.60;2.40;;;18.00;99.90;;;;;;4948956;29;20251;-48
2022/07/03 00:30:49;;;;;;;5.13;2.60;;;18.00;99.90;;;;;;4956386;29;20256;-47
2022/07/03 00:33:18;;;;;;;4.20;2.67;;;18.00;99.90;;;;;;4957239;29;20374;-48
2022/07/03 00:35:51;;;;;;;3.70;2.70;;;18.10;99.90;;;;;;4956698;29;20236;-48
2022/07/03 00:38:19;;;;;;;2.70;2.50;;;18.10;99.90;;;;;;4956777;29;20228;-48
2022/07/03 00:40:47;;;;;;;4.00;2.70;;;18.10;99.90;;;;;;4956929;29;20319;-48
2022/07/03 00:43:17;;;;;;;4.03;2.50;;;18.10;99.90;;;;;;4939882;29;20235;-49
2022/07/03 00:45:48;;;;;;;4.60;2.50;;;18.00;99.90;;;;;;4937737;29;20329;-47
2022/07/03 00:48:19;;;;;;;2.70;2.50;;;18.10;99.90;;;;;;4937240;29;20244;-48
2022/07/03 00:50:50;;;;;;;3.13;2.53;;;18.00;99.90;;;;;;4937616;29;20744;-49
2022/07/03 00:53:27;;;;;;;3.23;2.30;;;18.00;99.90;;;;;;4937828;29;20240;-48
2022/07/03 00:55:57;;;;;;;3.30;2.40;;;18.00;99.90;;;;;;4935605;29;20285;-47
2022/07/03 00:58:25;;;;;;;3.67;2.30;;;18.00;99.90;;;;;;4921570;29;20235;-49
2022/07/03 01:00:55;;;;;;;3.30;2.20;;;18.00;99.90;;;;;;4937152;29;20248;-47
2022/07/03 01:03:27;;;;;;;3.37;2.40;;;18.00;99.90;;;;;;4937259;29;20240;-48
2022/07/03 01:06:01;;;;;;;2.73;2.50;;;18.00;99.90;;;;;;4937310;29;20229;-48
2022/07/03 01:08:44;;;;;;;2.97;2.40;;;18.00;99.90;;;;;;4937112;29;20287;-48
2022/07/03 01:11:22;;;;;;;5.47;2.43;;;18.00;99.90;;;;;;4936803;29;20723;-48
2022/07/03 01:14:05;;;;;;;2.47;2.27;;;18.00;99.90;;;;;;4918001;29;20230;-48
2022/07/03 01:16:38;;;;;;;2.60;2.40;;;18.00;99.90;;;;;;4922663;29;20776;-48
2022/07/03 01:19:27;;;;;;;4.20;2.50;;;18.00;99.90;;;;;;4937055;29;20249;-48
2022/07/03 01:22:15;;;;;;;2.47;2.20;;;18.00;99.90;;;;;;4937206;29;20231;-50
2022/07/03 01:25:10;;;;;;;3.00;2.70;;;18.00;99.90;;;;;;4936792;29;20269;-49
2022/07/03 01:27:57;;;;;;;3.60;2.43;;;18.00;99.90;;;;;;4930362;29;20305;-48
2022/07/03 01:30:27;;;;;;;4.83;2.37;;;17.90;99.90;;;;;;4935126;29;20249;-48
2022/07/03 01:33:00;;;;;;;4.13;2.70;;;18.00;99.90;;;;;;4937046;29;20235;-50
2022/07/03 01:35:32;;;;;;;3.17;2.80;;;18.00;99.90;;;;;;4936922;29;20238;-49
2022/07/03 01:38:04;;;;;;;4.13;3.37;;;18.00;99.90;;;;;;4936864;29;20237;-49
2022/07/03 01:40:35;;;;;;;4.13;2.80;;;18.00;99.90;;;;;;4936647;29;20322;-49
2022/07/03 01:43:06;;;;;;;2.97;2.70;;;18.00;99.90;;;;;;4940305;29;20246;-47
2022/07/03 01:45:39;;;;;;;4.70;2.90;;;18.00;99.90;;;;;;4955535;29;20236;-49
2022/07/03 01:48:11;;;;;;;3.13;2.40;;;18.00;99.90;;;;;;4946928;29;20275;-48
2022/07/03 01:50:41;;;;;;;3.97;2.70;;;18.00;99.90;;;;;;4955609;28;20259;-48
2022/07/03 01:53:11;;;;;;;5.23;2.70;;;18.00;99.90;;;;;;4955884;29;20692;-48
2022/07/03 01:55:40;;;;;;;2.80;2.40;;;18.00;99.90;;;;;;4955471;29;20232;-48
2022/07/03 01:58:11;;;;;;;3.40;2.60;;;18.00;99.90;;;;;;4947706;29;20233;-48
2022/07/03 02:00:46;;;;;;;3.40;2.57;;;18.00;99.90;;;;;;4935878;29;20240;-49
2022/07/03 02:03:24;;;;;;;3.90;2.67;;;18.00;99.90;;;;;;4936585;29;20247;-48
2022/07/03 02:06:00;;;;;;;3.00;2.70;;;18.00;99.90;;;;;;4936178;29;20246;-48
2022/07/03 02:08:42;;;;;;;3.00;2.67;;;17.90;99.90;;;;;;4935406;29;20264;-49
2022/07/03 02:11:35;;;;;;;2.63;2.40;;;17.90;99.90;;;;;;4939280;29;20288;-49
2022/07/03 02:14:12;;;;;;;3.90;2.03;;;17.90;99.90;;;;;;4936292;29;20685;-48
2022/07/03 02:16:58;;;;;;;2.90;2.50;;;17.90;99.90;;;;;;4947687;29;20233;-46
2022/07/03 02:19:38;;;;;;;4.07;2.37;;;17.80;99.90;;;;;;4940994;29;20586;-49
2022/07/03 02:22:09;;;;;;;2.50;2.30;;;17.90;99.90;;;;;;4946147;29;20288;-48
2022/07/03 02:24:43;;;;;;;3.23;2.40;;;17.80;99.90;;;;;;4937575;29;20239;-48
2022/07/03 02:27:18;;;;;;;2.67;2.20;;;17.80;99.90;;;;;;4954823;29;20250;-48
2022/07/03 02:29:53;;;;;;;2.53;2.10;;;17.90;99.90;;;;;;4948440;29;20236;-48
2022/07/03 02:32:23;;;;;;;2.43;2.23;;;17.80;99.90;;;;;;4954655;29;20368;-47
2022/07/03 02:34:59;;;;;;;2.47;1.90;;;17.80;99.90;;;;;;4954828;29;20243;-48
2022/07/03 02:37:31;;;;;;;3.00;2.00;;;17.90;99.90;;;;;;4954914;29;20236;-48
2022/07/03 02:40:05;;;;;;;2.20;2.00;;;17.80;99.90;;;;;;4955095;29;20296;-47
2022/07/03 02:42:41;;;;;;;2.63;2.20;;;17.80;99.90;;;;;;4954264;29;20242;-49
2022/07/03 02:45:12;;;;;;;2.33;2.10;;;17.80;99.90;;;;;;4954604;29;20751;-50
2022/07/03 02:47:49;;;;;;;2.77;2.20;;;17.80;99.90;;;;;;4954269;29;20230;-47
2022/07/03 02:50:22;;;;;;;2.43;2.13;;;17.80;99.90;;;;;;4954895;29;20360;-50
2022/07/03 02:53:04;;;;;;;2.30;2.10;;;17.80;99.90;;;;;;4950338;29;20251;-48
2022/07/03 02:55:42;;;;;;;2.40;2.17;;;17.70;99.90;;;;;;4952588;29;20707;-46
2022/07/03 02:58:53;;;;;;;2.53;2.20;;;17.70;99.90;;;;;;4946515;29;20606;-47
2022/07/03 03:01:35;;;;;;;2.80;2.33;;;17.60;99.90;;;;;;4930714;29;20300;-52
2022/07/03 03:04:10;;;;;;;2.70;2.13;;;17.60;99.90;;;;;;4954994;29;20245;-48
2022/07/03 03:06:42;;;;;;;2.47;2.27;;;17.70;99.90;;;;;;4954286;29;20275;-48
2022/07/03 03:09:19;;;;;;;2.33;2.10;;;17.60;99.90;;;;;;4954711;29;20228;-47
2022/07/03 03:11:49;;;;;;;3.43;2.20;;;17.60;99.90;;;;;;4954388;29;20716;-46
2022/07/03 03:14:22;;;;;;;2.77;2.30;;;17.60;99.90;;;;;;4954652;29;20638;-47
2022/07/03 03:16:54;;;;;;;2.70;2.23;;;17.50;99.90;;;;;;4953118;29;20260;-48
2022/07/03 03:19:23;;;;;;;3.67;2.40;;;17.50;99.90;;;;;;4938300;29;20708;-47
2022/07/03 03:21:59;;;;;;;4.20;2.40;;;17.50;99.90;;;;;;4939026;29;20229;-48
2022/07/03 03:24:29;;;;;;;3.63;2.20;;;17.50;99.90;;;;;;4938905;29;20246;-48
2022/07/03 03:27:00;;;;;;;2.33;1.83;;;17.50;99.90;;;;;;4949903;29;20241;-48
2022/07/03 03:29:29;;;;;;;4.77;2.27;;;17.50;99.90;;;;;;4957311;29;20237;-49
2022/07/03 03:31:58;;;;;;;4.97;2.30;;;17.50;99.90;;;;;;4943632;29;20706;-47
2022/07/03 03:34:32;;;;;;;1.87;1.77;;;17.40;99.90;;;;;;4938661;29;20263;-48
2022/07/03 03:37:01;;;;;;;2.27;2.00;;;17.50;99.90;;;;;;4939029;29;20753;-47
2022/07/03 03:39:29;;;;;;;2.30;2.10;;;17.50;99.90;;;;;;4940227;28;20246;-47
2022/07/03 03:41:57;;;;;;;2.60;2.37;;;17.50;99.90;;;;;;4967561;28;20227;-48
2022/07/03 03:44:25;;;;;;;2.23;1.97;;;17.50;99.90;;;;;;4957466;29;20236;-50
2022/07/03 03:46:55;;;;;;;2.20;2.00;;;17.40;99.90;;;;;;4957868;29;20227;-47
2022/07/03 03:49:25;;;;;;;2.70;2.10;;;17.50;99.90;;;;;;4957758;29;20250;-48
2022/07/03 03:51:53;;;;;;;4.53;2.20;;;17.50;99.90;;;;;;4956476;29;20235;-48
2022/07/03 03:54:21;;;;;;;4.00;2.30;;;17.60;99.90;;;;;;4956073;29;20296;-50
2022/07/03 03:56:49;;;;;;;4.57;2.20;;;17.60;99.90;;;;;;4947424;29;20229;-47
2022/07/03 03:59:17;;;;;;;3.90;2.13;;;17.60;99.90;;;;;;4938444;29;20234;-48
2022/07/03 04:01:47;;;;;;;3.33;2.30;;;17.70;99.90;;;;;;4937643;29;20250;-48
2022/07/03 04:04:17;;;;;;;2.23;2.03;;;17.80;99.90;;;;;;4938342;29;20243;-48
2022/07/03 04:06:47;;;;;;;2.37;2.17;;;17.80;99.90;;;;;;4973350;28;20235;-48
2022/07/03 04:09:15;;;;;;;2.57;2.00;;;17.80;99.90;;;;;;4976866;28;20236;-48
2022/07/03 04:11:43;;;;;;;3.10;2.43;;;17.80;99.90;;;;;;4965075;28;20220;-50
2022/07/03 04:14:11;;;;;;;2.80;2.27;;;17.80;99.90;;;;;;4938111;29;20229;-48
2022/07/03 04:16:39;;;;;;;5.40;2.30;;;17.80;99.90;;;;;;4938871;29;20224;-47
2022/07/03 04:19:07;;;;;;;2.40;2.20;;;17.80;99.90;;;;;;4956860;29;20252;-48
2022/07/03 04:21:35;;;;;;;2.90;2.27;;;17.90;99.90;;;;;;4957414;29;20248;-49
2022/07/03 04:24:06;;;;;;;3.20;2.20;;;18.10;99.90;;;;;;4955438;29;20232;-48
2022/07/03 04:26:34;;;;;;;4.37;2.47;;;18.20;99.90;;;;;;4937760;29;20236;-50
2022/07/03 04:29:02;;;;;;;4.97;2.20;;;18.20;99.90;;;;;;4938284;29;20236;-47
2022/07/03 04:31:30;;;;;;;3.60;2.30;;;18.30;99.90;;;;;;4936877;29;20244;-49
2022/07/03 04:33:58;;;;;;;3.00;2.27;;;18.50;99.90;;;;;;4937857;29;20701;-49
2022/07/03 04:36:27;;;;;;;2.50;2.30;;;18.60;99.90;;;;;;4937578;29;20229;-49
2022/07/03 04:38:55;;;;;;;3.53;2.33;;;18.70;99.90;;;;;;4937930;29;20711;-49
2022/07/03 04:41:24;;;;;;;2.23;2.03;;;18.90;99.90;;;;;;4942408;29;20297;-48
2022/07/03 04:43:52;;;;;;;5.00;2.23;;;19.00;99.90;;;;;;4953409;29;20247;-48
2022/07/03 04:46:21;;;;;;;3.13;2.33;;;19.10;99.90;;;;;;4956751;29;20236;-48
2022/07/03 04:48:50;;;;;;;3.73;2.20;;;19.30;99.90;;;;;;4956677;29;20237;-48
2022/07/03 04:51:18;;;;;;;2.20;2.00;;;19.40;99.90;;;;;;4956974;29;20289;-48
2022/07/03 04:53:46;;;;;;;2.63;2.03;;;19.50;99.90;;;;;;4956193;29;20262;-48
2022/07/03 04:56:14;;;;;;;2.40;2.20;;;19.70;99.90;;;;;;4956492;29;20230;-49
2022/07/03 04:58:44;;;;;;;3.30;1.83;;;19.90;99.90;;;;;;4956095;29;20222;-48
2022/07/03 05:01:12;;;;;;;2.27;2.00;;;20.00;99.90;;;;;;4955988;29;20245;-48
2022/07/03 05:03:40;;;;;;;4.00;2.10;;;20.20;99.90;;;;;;4956693;29;20238;-47
2022/07/03 05:06:09;;;;;;;3.10;1.83;;;20.40;99.90;;;;;;4956257;28;20237;-50
2022/07/03 05:08:37;;;;;;;2.50;1.97;;;20.60;99.90;;;;;;4956469;29;20702;-48
2022/07/03 05:11:05;;;;;;;3.47;1.80;;;20.90;99.90;;;;;;4956340;28;20222;-48
2022/07/03 05:13:33;;;;;;;2.27;2.07;;;21.10;99.90;;;;;;4952233;29;20234;-49
2022/07/03 05:16:03;;;;;;;1.93;1.83;;;21.40;99.90;;;;;;4951904;29;20285;-50
2022/07/03 05:18:31;;;;;;;2.03;1.87;;;21.40;99.90;;;;;;4956136;29;20223;-49
2022/07/03 05:20:59;;;;;;;2.33;2.17;;;21.40;99.90;;;;;;4956350;29;20258;-48
2022/07/03 05:23:27;;;;;;;3.60;2.30;;;21.30;99.90;;;;;;4955679;29;20242;-51
2022/07/03 05:25:56;;;;;;;2.47;1.97;;;21.10;99.90;;;;;;4936800;29;20243;-47
2022/07/03 05:28:24;;;;;;;3.80;2.17;;;21.00;99.90;;;;;;4936815;29;20240;-48
2022/07/03 05:30:52;;;;;;;2.30;2.10;;;21.00;99.90;;;;;;4936429;29;20254;-48
2022/07/03 05:33:21;;;;;;;4.37;2.40;;;20.90;99.90;;;;;;4936831;29;20338;-48
2022/07/03 05:35:50;;;;;;;3.97;2.00;;;21.00;99.90;;;;;;4937772;29;20234;-48
2022/07/03 05:39:31;;;;;;;2.70;2.30;;;21.00;99.90;;;;;;4945136;29;20223;-48
2022/07/03 05:41:06;;;;;;;2.40;2.07;;;21.20;99.90;;;;;;4946098;28;20715;-50
2022/07/03 05:43:35;;;;;;;2.90;2.10;;;21.40;99.90;;;;;;4928215;29;20235;-48
2022/07/03 05:46:04;;;;;;;3.27;2.17;;;21.40;99.90;;;;;;4928608;29;20730;-49
2022/07/03 05:48:33;;;;;;;2.37;2.17;;;21.40;99.90;;;;;;4932186;29;20695;-47
2022/07/03 05:51:01;;;;;;;3.60;2.07;;;21.50;99.90;;;;;;4927004;29;20236;-49
2022/07/03 05:53:30;;;;;;;2.93;2.07;;;21.70;99.90;;;;;;4925470;29;20251;-48
2022/07/03 05:55:59;;;;;;;3.53;2.00;;;21.80;99.90;;;;;;4928221;29;20720;-51
2022/07/03 05:58:27;;;;;;;3.40;2.10;;;22.00;99.90;;;;;;4927117;29;20220;-48
2022/07/03 06:00:55;;;;;;;2.47;2.27;;;22.10;99.90;;;;;;4933142;29;20243;-49
2022/07/03 06:03:23;;;;;;;3.23;2.60;;;22.30;99.90;;;;;;4928336;29;20311;-49
2022/07/03 06:05:53;;;;;;;3.43;2.10;;;22.50;99.90;;;;;;4927177;29;20231;-49
2022/07/03 06:08:21;;;;;;;3.27;2.33;;;22.90;99.90;;;;;;4926277;29;20228;-48
2022/07/03 06:10:49;;;;;;;2.10;1.97;;;23.10;99.90;;;;;;4930828;29;20228;-49
2022/07/03 06:13:18;;;;;;;3.43;2.00;;;23.20;99.90;;;;;;4929972;29;20227;-48
2022/07/03 06:15:46;;;;;;;2.90;2.37;;;23.70;99.90;;;;;;4935698;29;20259;-51
2022/07/03 06:18:14;;;;;;;3.30;2.30;;;24.20;99.90;;;;;;4935869;29;20726;-49
2022/07/03 06:20:42;;;;;;;3.87;1.90;;;24.10;99.90;;;;;;4930131;29;20236;-50
2022/07/03 06:23:12;;;;;;;3.07;2.10;;;23.90;99.90;;;;;;4929321;29;20762;-48
2022/07/03 06:26:01;;;;;;;4.43;2.37;;;23.70;99.90;;;;;;4923770;29;20767;-48
2022/07/03 06:28:29;;;;;;;2.20;2.10;;;23.50;99.90;;;;;;4924826;29;20234;-50
2022/07/03 06:30:57;;;;;;;2.33;2.13;;;23.50;99.90;;;;;;4926205;29;20266;-48
2022/07/03 06:33:25;;;;;;;2.33;2.13;;;23.40;99.90;;;;;;4925132;29;20319;-50
2022/07/03 06:35:53;;;;;;;2.77;2.07;;;23.50;99.90;;;;;;4917949;29;20238;-50
2022/07/03 06:38:23;;;;;;;3.50;2.40;;;23.60;99.90;;;;;;4932115;29;20230;-50
2022/07/03 06:40:51;;;;;;;3.40;2.20;;;23.60;99.90;;;;;;4928466;29;20239;-51
2022/07/03 06:43:20;;;;;;;3.17;2.10;;;23.60;99.90;;;;;;4922445;29;20803;-49
2022/07/03 06:45:49;;;;;;;4.73;2.17;;;23.50;99.90;;;;;;4921613;29;20596;-49
2022/07/03 06:48:17;;;;;;;3.57;2.30;;;23.50;99.90;;;;;;4931377;29;20604;-50
2022/07/03 06:50:46;;;;;;;2.53;2.03;;;23.40;99.90;;;;;;4946431;29;20234;-50
2022/07/03 06:53:15;;;;;;;3.37;2.40;;;23.40;99.90;;;;;;4929883;29;20229;-50
2022/07/03 06:55:44;;;;;;;3.77;2.60;;;23.40;99.90;;;;;;4915595;29;20231;-49
2022/07/03 06:58:12;;;;;;;4.87;2.87;;;23.40;99.90;;;;;;4916547;29;20245;-49
2022/07/03 07:00:40;;;;;;;2.20;2.00;;;23.40;99.90;;;;;;4919036;29;20743;-50
2022/07/03 07:03:09;;;;;;;3.83;2.20;;;23.50;99.90;;;;;;4926524;29;20819;-49
2022/07/03 07:05:37;;;;;;;3.17;2.70;;;23.40;99.90;;;;;;4928056;29;20227;-50
2022/07/03 07:08:05;;;;;;;2.40;2.20;;;23.50;99.90;;;;;;4907875;29;20597;-49
2022/07/03 07:10:33;;;;;;;2.53;2.23;;;23.90;99.90;;;;;;4924790;29;20233;-49
2022/07/03 07:13:03;;;;;;;3.23;2.47;;;24.70;99.90;;;;;;4930602;29;20713;-50
2022/07/03 07:15:31;;;;;;;2.20;2.00;;;25.00;99.90;;;;;;4930021;29;20238;-49
2022/07/03 07:17:59;;;;;;;2.50;2.30;;;25.00;99.90;;;;;;4926587;29;20706;-50
2022/07/03 07:20:28;;;;;;;2.97;2.40;;;25.10;99.90;;;;;;4930890;29;20242;-49
2022/07/03 07:22:56;;;;;;;4.33;2.40;;;24.80;99.90;;;;;;4934871;29;20329;-49
2022/07/03 07:25:24;;;;;;;2.50;2.07;;;24.70;99.90;;;;;;4935271;29;20244;-51
2022/07/03 07:27:52;;;;;;;2.80;2.10;;;24.80;99.90;;;;;;4927271;29;20232;-49
2022/07/03 07:30:21;;;;;;;3.10;2.40;;;25.30;99.90;;;;;;4933676;29;20737;-49
2022/07/03 07:32:50;;;;;;;3.57;2.57;;;26.10;99.90;;;;;;4929509;29;20223;-49
2022/07/03 07:35:22;;;;;;;2.30;1.93;;;26.60;99.90;;;;;;4917963;29;20235;-52
2022/07/03 07:37:50;;;;;;;2.83;2.00;;;26.70;99.90;;;;;;4916727;29;20239;-50
2022/07/03 07:40:18;;;;;;;3.33;2.17;;;27.00;99.90;;;;;;4916135;29;20217;-52
2022/07/03 07:42:46;;;;;;;4.80;2.30;;;27.20;99.90;;;;;;4923435;29;20241;-50
2022/07/03 07:45:14;;;;;;;4.60;2.00;;;26.90;99.90;;;;;;4916859;29;20251;-49
2022/07/03 07:47:44;;;;;;;3.70;2.50;;;26.60;99.90;;;;;;4934954;29;20587;-49
2022/07/03 07:50:12;;;;;;;2.77;2.40;;;26.60;99.90;;;;;;4931085;29;20229;-52
2022/07/03 07:52:40;;;;;;;4.50;2.10;;;26.40;99.90;;;;;;4926039;29;20238;-49
2022/07/03 07:55:08;;;;;;;2.67;2.37;;;26.10;99.90;;;;;;4942524;29;20242;-51
2022/07/03 07:57:37;;;;;;;2.50;2.00;;;25.90;99.90;;;;;;4927109;29;20224;-49
2022/07/03 08:00:07;;;;;;;3.93;1.97;;;25.70;99.90;;;;;;4934394;29;20266;-51
2022/07/03 08:05:38;;;;;;;3.10;2.27;;;25.80;99.90;;;;;;4935142;29;20243;-51
2022/07/03 08:08:09;;;;;;;3.27;2.00;;;26.50;99.90;;;;;;4935971;29;20266;-50
2022/07/03 08:10:39;;;;;;;2.80;2.20;;;26.40;99.90;;;;;;4927138;29;20247;-52
2022/07/03 08:13:08;;;;;;;3.17;1.80;;;26.50;99.90;;;;;;4927816;29;20226;-50
2022/07/03 08:15:36;;;;;;;2.17;1.90;;;27.00;99.90;;;;;;4923594;29;20227;-50
2022/07/03 08:18:05;;;;;;;3.10;1.90;;;27.50;99.90;;;;;;4925580;29;20627;-49
2022/07/03 08:20:35;;;;;;;3.00;1.80;;;27.50;99.90;;;;;;4937926;29;20618;-50
2022/07/03 08:23:04;;;;;;;2.97;1.93;;;28.10;99.90;;;;;;4937802;29;20236;-52
2022/07/03 08:25:34;;;;;;;1.83;1.63;;;28.70;99.90;;;;;;4938030;29;20240;-52
2022/07/03 08:28:02;;;;;;;2.40;1.80;;;29.00;99.90;;;;;;4936963;29;20695;-52
2022/07/03 08:30:30;;;;;;;3.13;1.50;;;29.30;99.90;;;;;;4934880;29;20731;-52
2022/07/03 08:32:59;;;;;;;2.10;1.30;;;29.50;99.90;;;;;;4928581;29;20224;-50
2022/07/03 08:35:28;;;;;;;2.40;1.70;;;30.00;99.90;;;;;;4922310;29;20271;-50
2022/07/03 08:37:58;;;;;;;2.67;1.50;;;30.50;99.90;;;;;;4924050;29;20561;-50
2022/07/03 08:40:26;;;;;;;2.80;1.57;;;30.40;99.90;;;;;;4918665;29;20240;-52
2022/07/03 08:42:57;;;;;;;2.80;1.50;;;30.50;99.90;;;;;;4942003;29;20248;-51
2022/07/03 08:45:26;;;;;;;2.77;1.33;;;30.10;99.90;;;;;;4948065;29;20691;-50
2022/07/03 08:47:56;;;;;;;1.97;1.23;;;29.80;99.90;;;;;;4947031;29;20664;-51
2022/07/03 08:50:24;;;;;;;5.47;1.57;;;29.40;99.90;;;;;;4947948;29;20721;-53
2022/07/03 08:52:52;;;;;;;1.70;1.30;;;28.90;99.90;;;;;;4946395;29;20295;-51
2022/07/03 08:55:21;;;;;;;2.47;1.40;;;28.50;99.90;;;;;;4945702;29;20224;-52
2022/07/03 08:57:50;;;;;;;1.90;1.30;;;29.00;99.90;;;;;;4938601;29;20280;-51
2022/07/03 09:00:20;;;;;;;3.57;1.30;;;29.50;99.90;;;;;;4942528;29;20237;-52
2022/07/03 09:02:50;;;;;;;3.63;1.53;;;29.50;99.90;;;;;;4930131;29;20324;-53
2022/07/03 09:05:18;;;;;;;1.57;1.20;;;29.50;99.90;;;;;;4932537;29;20239;-50
2022/07/03 09:07:47;;;;;;;2.13;0.90;;;30.00;99.90;;;;;;4932421;29;20599;-51
2022/07/03 09:10:17;;;;;;;1.90;1.10;;;30.60;99.90;;;;;;4931322;29;20232;-52
2022/07/03 09:12:48;;;;;;;2.20;1.00;;;31.10;99.90;;;;;;4932924;29;20246;-53
2022/07/03 09:15:17;;;;;;;1.73;1.00;;;31.40;99.90;;;;;;4932753;29;20235;-52
2022/07/03 09:18:00;;;;;;;3.73;1.20;;;31.80;99.90;;;;;;4934055;29;20628;-51
2022/07/03 09:20:33;;;;;;;3.33;1.10;;;31.70;99.90;;;;;;4930297;29;20292;-53
2022/07/03 09:23:12;;;;;;;2.83;1.30;;;31.90;99.90;;;;;;4932254;29;20299;-54
2022/07/03 09:25:58;;;;;;;2.53;1.20;;;31.80;99.90;;;;;;4931568;29;20232;-52
2022/07/03 09:28:44;;;;;;;1.83;1.00;;;32.00;99.90;;;;;;4932019;29;20838;-55
2022/07/03 09:31:14;;;;;;;2.00;1.10;;;32.20;99.70;;;;;;4930132;29;20282;-53
2022/07/03 09:33:56;;;;;;;1.27;1.00;;;32.40;99.40;;;;;;4933360;29;20725;-52
2022/07/03 09:36:38;;;;;;;2.67;1.03;;;32.50;99.50;;;;;;4933211;29;20272;-52
2022/07/03 09:39:18;;;;;;;2.00;1.20;;;32.70;99.00;;;;;;4932963;29;20862;-53
2022/07/03 09:41:58;;;;;;;2.80;1.13;;;33.00;98.60;;;;;;4931121;29;20638;-52
2022/07/03 09:44:33;;;;;;;2.60;1.13;;;32.90;98.90;;;;;;4932407;29;20241;-54
2022/07/03 09:47:12;;;;;;;4.83;1.30;;;32.90;98.60;;;;;;4930683;29;20265;-52
2022/07/03 09:49:48;;;;;;;2.83;1.20;;;33.00;97.70;;;;;;4931200;29;20646;-53
2022/07/03 09:52:33;;;;;;;1.53;1.17;;;33.20;98.20;;;;;;4928843;29;20250;-54
2022/07/03 09:55:12;;;;;;;3.60;1.13;;;33.60;97.80;;;;;;4934821;29;20220;-53
2022/07/03 09:57:43;;;;;;;2.43;1.10;;;34.00;97.80;;;;;;4946830;29;20231;-52
2022/07/03 10:00:15;;;;;;;1.90;1.10;;;34.20;96.90;;;;;;4953988;29;20230;-53
2022/07/03 10:02:54;;;;;;;2.07;1.00;;;34.30;94.70;;;;;;4947369;29;20228;-53
2022/07/03 10:05:24;;;;;;;2.30;1.00;;;34.10;95.40;;;;;;4953652;29;20251;-53
2022/07/03 10:07:55;;;;;;;7.53;1.00;;;34.40;95.90;;;;;;4936215;29;20232;-52
2022/07/03 10:10:25;;;;;;;3.33;0.80;;;34.50;94.50;;;;;;4948360;29;20279;-52
2022/07/03 10:12:55;;;;;;;0.90;0.77;;;34.60;93.70;;;;;;4942682;29;20797;-54
2022/07/03 10:15:26;;;;;;;1.33;0.80;;;34.70;93.70;;;;;;4937677;29;20707;-54
2022/07/03 10:17:56;;;;;;;2.00;0.90;;;34.90;93.40;;;;;;4936174;29;20718;-53
2022/07/03 10:20:27;;;;;;;1.33;0.90;;;34.50;92.50;;;;;;4947549;29;20215;-53
2022/07/03 10:22:56;;;;;;;1.47;0.97;;;34.50;93.80;;;;;;4945658;29;20245;-53
2022/07/03 10:25:24;;;;;;;1.50;0.80;;;34.30;92.30;;;;;;4949018;29;20286;-53
2022/07/03 10:27:53;;;;;;;1.20;0.80;;;34.20;90.70;;;;;;4944200;28;20275;-53
2022/07/03 10:30:24;;;;;;;1.40;1.00;;;34.10;91.00;;;;;;4936108;29;20236;-53
2022/07/03 10:32:54;;;;;;;2.40;0.77;;;34.20;91.80;;;;;;4928933;29;20246;-50
2022/07/03 10:35:25;;;;;;;1.97;1.13;;;34.60;91.60;;;;;;4928042;29;20260;-51
2022/07/03 10:38:08;;;;;;;3.20;0.90;;;34.50;90.20;;;;;;4931948;29;21365;-52
2022/07/03 10:46:22;;;;;;;1.57;0.90;;;34.50;91.40;;;;;;4927474;29;20242;-52
2022/07/03 10:49:00;;;;;;;0.90;0.63;;;34.70;90.40;;;;;;4929843;29;20234;-51
2022/07/03 10:51:30;;;;;;;1.00;0.70;;;34.80;90.50;;;;;;4932617;29;20239;-52
2022/07/03 10:54:23;;;;;;;1.43;0.80;;;34.80;88.70;;;;;;4935626;28;20654;-52
2022/07/03 10:57:15;;;;;;;1.10;0.60;;;35.10;88.10;;;;;;4914905;29;20234;-52
2022/07/03 11:00:05;;;;;;;2.07;0.60;;;35.20;83.10;;;;;;4932548;29;20251;-52
2022/07/03 11:02:37;;;;;;;0.80;0.60;;;35.20;86.30;;;;;;4924043;29;20236;-53
2022/07/03 11:05:12;;;;;;;2.17;0.70;;;35.10;85.50;;;;;;4930368;29;20246;-52
2022/07/03 11:07:59;;;;;;;1.07;0.50;;;35.40;85.30;;;;;;4932005;29;20245;-52
2022/07/03 11:10:33;;;;;;;2.17;0.70;;;35.50;85.80;;;;;;4929142;29;20569;-53
2022/07/03 11:13:03;;;;;;;1.37;0.60;;;35.70;85.00;;;;;;4928699;29;20588;-53
2022/07/03 11:15:33;;;;;;;2.77;0.93;;;35.50;83.90;;;;;;4933213;29;20640;-54
2022/07/03 11:18:35;;;;;;;2.50;0.70;;;35.50;82.90;;;;;;4932103;29;20258;-52
2022/07/03 11:21:20;;;;;;;2.33;0.60;;;35.50;82.80;;;;;;4930448;29;20234;-54
2022/07/03 11:24:15;;;;;;;1.93;0.77;;;35.20;77.70;;;;;;4929392;29;20587;-52
2022/07/03 11:26:43;;;;;;;1.57;0.53;;;35.20;80.00;;;;;;4931952;29;20382;-53
2022/07/03 11:29:27;;;;;;;2.13;0.70;;;35.30;75.80;;;;;;4929541;28;20227;-52
2022/07/03 11:31:56;;;;;;;1.50;0.80;;;35.20;80.80;;;;;;4932548;29;20320;-51
2022/07/03 11:34:25;;;;;;;1.63;0.70;;;35.10;79.70;;;;;;4929057;29;20246;-52
2022/07/03 11:36:53;;;;;;;2.60;0.70;;;35.10;79.30;;;;;;4930713;29;21010;-53
2022/07/03 11:39:22;;;;;;;2.13;0.80;;;35.20;77.90;;;;;;4929745;29;20229;-53
2022/07/03 11:41:50;;;;;;;0.80;0.50;;;35.10;79.70;;;;;;4932789;29;20310;-50
2022/07/03 11:44:21;;;;;;;1.30;0.60;;;35.20;81.10;;;;;;4915200;29;20576;-53
2022/07/03 11:46:52;;;;;;;1.63;0.70;;;35.10;77.40;;;;;;4915986;29;20584;-51
2022/07/03 11:49:24;;;;;;;1.30;0.50;;;35.30;77.60;;;;;;4915058;29;20240;-52
2022/07/03 11:52:02;;;;;;;3.17;0.70;;;35.60;78.90;;;;;;4917461;29;20239;-50
2022/07/03 11:54:49;;;;;;;2.00;0.80;;;35.50;78.00;;;;;;4913142;29;20585;-52
2022/07/03 11:57:18;;;;;;;1.77;0.77;;;35.80;79.60;;;;;;4915246;29;20248;-51
2022/07/03 11:59:46;;;;;;;1.83;0.67;;;35.80;79.80;;;;;;4914888;29;20233;-52
2022/07/03 12:02:14;;;;;;;1.70;0.70;;;35.90;78.50;;;;;;4912984;29;20255;-51
2022/07/03 12:04:42;;;;;;;2.50;0.80;;;35.40;77.70;;;;;;4912178;29;20678;-53
2022/07/03 12:07:12;;;;;;;1.97;0.53;;;34.20;77.30;;;;;;4913415;29;20232;-52
2022/07/03 12:09:40;;;;;;;0.83;0.60;;;33.30;79.80;;;;;;4914817;29;20247;-52
2022/07/03 12:12:10;;;;;;;3.50;0.80;;;32.80;81.80;;;;;;4913684;29;20801;-52
2022/07/03 12:14:41;;;;;;;0.90;0.60;;;32.60;84.10;;;;;;4914267;29;20584;-52
2022/07/03 12:17:11;;;;;;;1.80;0.70;;;32.70;83.90;;;;;;4914099;29;20235;-53
2022/07/03 12:19:45;;;;;;;1.07;0.60;;;32.70;86.50;;;;;;4912890;29;20249;-52
2022/07/03 12:22:23;;;;;;;3.07;0.80;;;32.70;83.80;;;;;;4910730;29;20239;-51
2022/07/03 12:25:01;;;;;;;1.57;0.70;;;32.80;84.30;;;;;;4911571;29;20304;-52
2022/07/03 12:27:30;;;;;;;0.93;0.70;;;32.90;84.00;;;;;;4911677;29;20699;-52
2022/07/03 12:29:59;;;;;;;1.47;0.80;;;32.70;84.40;;;;;;4909578;29;20245;-50
2022/07/03 12:32:27;;;;;;;1.00;0.57;;;32.60;81.90;;;;;;4909397;29;20338;-53
2022/07/03 12:34:56;;;;;;;0.70;0.67;;;32.40;85.30;;;;;;4911962;29;20217;-52
2022/07/03 12:37:35;;;;;;;1.37;0.70;;;32.20;84.70;;;;;;4912258;29;20248;-52
2022/07/03 12:40:06;;;;;;;1.60;0.80;;;32.10;83.90;;;;;;4912823;29;20233;-52
2022/07/03 12:42:45;;;;;;;1.93;0.80;;;32.40;82.40;;;;;;4918540;29;20663;-53
2022/07/03 12:45:15;;;;;;;1.77;0.80;;;32.70;83.50;;;;;;4930401;29;20337;-50
2022/07/03 12:47:45;;;;;;;1.73;0.90;;;32.50;84.10;;;;;;4931630;29;20231;-53
2022/07/03 12:50:15;;;;;;;1.00;0.77;;;32.30;85.80;;;;;;4932791;29;20703;-51
2022/07/03 12:52:52;;;;;;;1.50;1.00;;;32.30;87.30;;;;;;4930137;29;20238;-52
2022/07/03 12:55:24;;;;;;;2.07;0.80;;;32.00;88.70;;;;;;4929706;29;20237;-52
2022/07/03 13:00:57;;;;;;;3.90;0.73;;;31.60;90.20;;;;;;4933856;29;20238;-52
2022/07/03 13:03:29;;;;;;;1.57;0.87;;;31.40;90.00;;;;;;4942612;29;20714;-52
2022/07/03 13:06:14;;;;;;;3.17;0.80;;;31.30;90.20;;;;;;4953576;29;20239;-52
2022/07/03 13:08:55;;;;;;;1.40;0.90;;;31.30;90.20;;;;;;4949800;29;20588;-52
2022/07/03 13:11:31;;;;;;;2.50;0.83;;;31.10;90.60;;;;;;4944872;29;20233;-52
2022/07/03 13:14:08;;;;;;;1.20;0.77;;;31.00;90.70;;;;;;4949448;29;20241;-52
2022/07/03 13:16:42;;;;;;;4.43;0.90;;;30.80;90.80;;;;;;4949940;29;20221;-53
2022/07/03 13:19:13;;;;;;;1.67;0.80;;;30.70;91.30;;;;;;4943373;29;20227;-51
2022/07/03 13:21:43;;;;;;;1.67;1.00;;;30.80;91.70;;;;;;4942855;29;20299;-52
2022/07/03 13:24:14;;;;;;;2.40;0.77;;;30.90;90.50;;;;;;4942959;29;20288;-53